sensor_id;sensor_type;location;lat;lon;timestamp;pressure;altitude;pressure_sealevel;temperature;humidity
17054;BME280;8643;48.824;11.422;2023-02-28T00:01:55;97572.00;;;-3.55;100.00
17054;BME280;8643;48.824;11.422;2023-02-28T00:04:25;97574.09;;;-3.57;100.00
17054;BME280;8643;48.824;11.422;2023-02-28T00:06:53;97574.09;;;-3.57;100.00
17054;BME280;8643;48.824;11.422;2023-02-28T00:09:22;97573.16;;;-3.51;100.00
17054;BME280;8643;48.824;11.422;2023-02-28T00:11:50;97577.34;;;-3.55;100.00
17054;BME280;8643;48.824;11.422;2023-02-28T00:14:18;97568.03;;;-3.52;100.00
17054;BME280;8643;48.824;11.422;2023-02-28T00:16:47;97577.03;;;-3.46;100.00
17054;BME280;8643;48.824;11.422;2023-02-28T00:19:16;97560.84;;;-3.52;100.00
17054;BME280;8643;48.824;11.422;2023-02-28T00:21:46;97568.66;;;-3.50;100.00
17054;BME280;8643;48.824;11.422;2023-02-28T00:24:14;97562.91;;;-3.54;100.00
17054;BME280;8643;48.824;11.422;2023-02-28T00:26:43;97559.19;;;-3.53;100.00
17054;BME280;8643;48.824;11.422;2023-02-28T00:29:11;97551.53;;;-3.49;100.00
17054;BME280;8643;48.824;11.422;2023-02-28T00:31:39;97547.31;;;-3.57;100.00
17054;BME280;8643;48.824;11.422;2023-02-28T00:34:08;97552.69;;;-3.57;100.00
17054;BME280;8643;48.824;11.422;2023-02-28T00:36:37;97547.31;;;-3.57;100.00
17054;BME280;8643;48.824;11.422;2023-02-28T00:39:06;97547.53;;;-3.58;100.00
17054;BME280;8643;48.824;11.422;2023-02-28T00:41:35;97554.16;;;-3.61;100.00
17054;BME280;8643;48.824;11.422;2023-02-28T00:44:07;97548.94;;;-3.56;100.00
17054;BME280;8643;48.824;11.422;2023-02-28T00:46:35;97546.94;;;-3.60;100.00
17054;BME280;8643;48.824;11.422;2023-02-28T00:49:04;97543.44;;;-3.61;100.00
17054;BME280;8643;48.824;11.422;2023-02-28T00:51:32;97543.31;;;-3.66;100.00
17054;BME280;8643;48.824;11.422;2023-02-28T00:54:01;97546.78;;;-3.65;100.00
17054;BME280;8643;48.824;11.422;2023-02-28T00:56:31;97537.50;;;-3.63;100.00
17054;BME280;8643;48.824;11.422;2023-02-28T00:58:59;97539.66;;;-3.72;100.00
17054;BME280;8643;48.824;11.422;2023-02-28T01:01:28;97540.63;;;-3.66;100.00
17054;BME280;8643;48.824;11.422;2023-02-28T01:03:58;97543.16;;;-3.71;100.00
17054;BME280;8643;48.824;11.422;2023-02-28T01:06:26;97531.84;;;-3.73;100.00
17054;BME280;8643;48.824;11.422;2023-02-28T01:08:55;97534.53;;;-3.73;100.00
17054;BME280;8643;48.824;11.422;2023-02-28T01:11:23;97539.44;;;-3.70;100.00
17054;BME280;8643;48.824;11.422;2023-02-28T01:13:54;97534.78;;;-3.75;100.00
17054;BME280;8643;48.824;11.422;2023-02-28T01:16:22;97540.19;;;-3.81;100.00
17054;BME280;8643;48.824;11.422;2023-02-28T01:18:51;97539.16;;;-3.80;100.00
17054;BME280;8643;48.824;11.422;2023-02-28T01:21:21;97534.25;;;-3.83;100.00
17054;BME280;8643;48.824;11.422;2023-02-28T01:23:51;97539.03;;;-3.85;100.00
17054;BME280;8643;48.824;11.422;2023-02-28T01:26:22;97537.38;;;-3.87;100.00
17054;BME280;8643;48.824;11.422;2023-02-28T01:28:52;97536.56;;;-3.87;100.00
17054;BME280;8643;48.824;11.422;2023-02-28T01:31:22;97529.22;;;-3.92;100.00
17054;BME280;8643;48.824;11.422;2023-02-28T01:33:51;97540.72;;;-3.91;100.00
17054;BME280;8643;48.824;11.422;2023-02-28T01:36:23;97527.97;;;-3.89;100.00
17054;BME280;8643;48.824;11.422;2023-02-28T01:38:52;97523.84;;;-3.92;100.00
17054;BME280;8643;48.824;11.422;2023-02-28T01:41:24;97521.75;;;-3.90;100.00
17054;BME280;8643;48.824;11.422;2023-02-28T01:44:01;97533.75;;;-3.92;100.00
17054;BME280;8643;48.824;11.422;2023-02-28T01:46:35;97531.06;;;-3.92;100.00
17054;BME280;8643;48.824;11.422;2023-02-28T01:49:12;97531.28;;;-3.94;100.00
17054;BME280;8643;48.824;11.422;2023-02-28T01:51:44;97523.50;;;-3.95;100.00
17054;BME280;8643;48.824;11.422;2023-02-28T01:54:23;97530.09;;;-3.98;100.00
17054;BME280;8643;48.824;11.422;2023-02-28T01:56:57;97523.34;;;-4.00;100.00
17054;BME280;8643;48.824;11.422;2023-02-28T01:59:33;97527.88;;;-4.01;100.00
17054;BME280;8643;48.824;11.422;2023-02-28T02:02:04;97532.63;;;-4.03;100.00
17054;BME280;8643;48.824;11.422;2023-02-28T02:04:39;97532.19;;;-4.00;100.00
17054;BME280;8643;48.824;11.422;2023-02-28T02:07:12;97516.13;;;-4.00;100.00
17054;BME280;8643;48.824;11.422;2023-02-28T02:09:44;97531.00;;;-4.04;100.00
17054;BME280;8643;48.824;11.422;2023-02-28T02:12:25;97519.56;;;-4.11;100.00
17054;BME280;8643;48.824;11.422;2023-02-28T02:15:05;97528.63;;;-4.12;100.00
17054;BME280;8643;48.824;11.422;2023-02-28T02:17:42;97526.19;;;-4.14;100.00
17054;BME280;8643;48.824;11.422;2023-02-28T02:24:03;97521.06;;;-4.15;100.00
17054;BME280;8643;48.824;11.422;2023-02-28T02:27:16;97520.38;;;-4.11;100.00
17054;BME280;8643;48.824;11.422;2023-02-28T02:30:26;97524.53;;;-4.15;100.00
17054;BME280;8643;48.824;11.422;2023-02-28T02:33:45;97517.19;;;-4.19;100.00
17054;BME280;8643;48.824;11.422;2023-02-28T02:36:26;97511.25;;;-4.21;100.00
17054;BME280;8643;48.824;11.422;2023-02-28T02:39:02;97512.84;;;-4.20;100.00
17054;BME280;8643;48.824;11.422;2023-02-28T02:41:39;97515.09;;;-4.17;100.00
17054;BME280;8643;48.824;11.422;2023-02-28T02:44:15;97508.13;;;-4.18;100.00
17054;BME280;8643;48.824;11.422;2023-02-28T02:46:53;97515.72;;;-4.15;100.00
17054;BME280;8643;48.824;11.422;2023-02-28T02:49:32;97516.38;;;-4.20;100.00
17054;BME280;8643;48.824;11.422;2023-02-28T02:52:07;97511.25;;;-4.21;100.00
17054;BME280;8643;48.824;11.422;2023-02-28T02:54:41;97524.03;;;-4.24;100.00
17054;BME280;8643;48.824;11.422;2023-02-28T02:57:18;97518.97;;;-4.32;100.00
17054;BME280;8643;48.824;11.422;2023-02-28T02:59:52;97519.72;;;-4.25;100.00
17054;BME280;8643;48.824;11.422;2023-02-28T03:02:23;97517.47;;;-4.28;100.00
17054;BME280;8643;48.824;11.422;2023-02-28T03:05:00;97521.88;;;-4.33;100.00
17054;BME280;8643;48.824;11.422;2023-02-28T03:07:30;97523.78;;;-4.40;100.00
17054;BME280;8643;48.824;11.422;2023-02-28T03:09:58;97523.56;;;-4.39;100.00
17054;BME280;8643;48.824;11.422;2023-02-28T03:12:40;97526.81;;;-4.37;100.00
17054;BME280;8643;48.824;11.422;2023-02-28T03:15:21;97519.03;;;-4.38;100.00
17054;BME280;8643;48.824;11.422;2023-02-28T03:18:04;97521.53;;;-4.44;100.00
17054;BME280;8643;48.824;11.422;2023-02-28T03:20:49;97519.72;;;-4.43;100.00
17054;BME280;8643;48.824;11.422;2023-02-28T03:23:28;97515.69;;;-4.34;100.00
17054;BME280;8643;48.824;11.422;2023-02-28T03:26:06;97515.53;;;-4.39;100.00
17054;BME280;8643;48.824;11.422;2023-02-28T03:28:45;97515.75;;;-4.40;100.00
17054;BME280;8643;48.824;11.422;2023-02-28T03:31:22;97510.47;;;-4.47;100.00
17054;BME280;8643;48.824;11.422;2023-02-28T03:34:01;97515.38;;;-4.44;100.00
17054;BME280;8643;48.824;11.422;2023-02-28T03:36:37;97509.66;;;-4.48;100.00
17054;BME280;8643;48.824;11.422;2023-02-28T03:39:16;97510.84;;;-4.44;100.00
17054;BME280;8643;48.824;11.422;2023-02-28T03:41:54;97507.59;;;-4.46;100.00
17054;BME280;8643;48.824;11.422;2023-02-28T03:44:32;97504.63;;;-4.56;100.00
17054;BME280;8643;48.824;11.422;2023-02-28T03:47:09;97513.44;;;-4.55;100.00
17054;BME280;8643;48.824;11.422;2023-02-28T03:49:46;97516.91;;;-4.55;100.00
17054;BME280;8643;48.824;11.422;2023-02-28T03:52:20;97514.09;;;-4.60;100.00
17054;BME280;8643;48.824;11.422;2023-02-28T03:54:56;97518.78;;;-4.55;100.00
17054;BME280;8643;48.824;11.422;2023-02-28T03:57:34;97513.88;;;-4.58;100.00
17054;BME280;8643;48.824;11.422;2023-02-28T04:00:12;97517.81;;;-4.61;100.00
17054;BME280;8643;48.824;11.422;2023-02-28T04:02:41;97523.16;;;-4.61;100.00
17054;BME280;8643;48.824;11.422;2023-02-28T04:05:10;97528.28;;;-4.59;100.00
17054;BME280;8643;48.824;11.422;2023-02-28T04:07:39;97524.13;;;-4.55;100.00
17054;BME280;8643;48.824;11.422;2023-02-28T04:10:11;97519.66;;;-4.62;100.00
17054;BME280;8643;48.824;11.422;2023-02-28T04:12:40;97518.03;;;-4.63;100.00
17054;BME280;8643;48.824;11.422;2023-02-28T04:15:09;97526.72;;;-4.67;100.00
17054;BME280;8643;48.824;11.422;2023-02-28T04:17:38;97525.44;;;-4.65;100.00
17054;BME280;8643;48.824;11.422;2023-02-28T04:20:08;97529.97;;;-4.65;100.00
17054;BME280;8643;48.824;11.422;2023-02-28T04:22:37;97536.53;;;-4.61;100.00
17054;BME280;8643;48.824;11.422;2023-02-28T04:25:10;97531.41;;;-4.63;100.00
17054;BME280;8643;48.824;11.422;2023-02-28T04:27:39;97529.38;;;-4.67;100.00
17054;BME280;8643;48.824;11.422;2023-02-28T04:30:09;97527.31;;;-4.65;100.00
17054;BME280;8643;48.824;11.422;2023-02-28T04:32:38;97527.75;;;-4.68;100.00
17054;BME280;8643;48.824;11.422;2023-02-28T04:35:08;97535.81;;;-4.75;100.00
17054;BME280;8643;48.824;11.422;2023-02-28T04:37:38;97534.56;;;-4.72;100.00
17054;BME280;8643;48.824;11.422;2023-02-28T04:40:10;97534.09;;;-4.63;100.00
17054;BME280;8643;48.824;11.422;2023-02-28T04:42:38;97540.44;;;-4.64;100.00
17054;BME280;8643;48.824;11.422;2023-02-28T04:45:09;97529.38;;;-4.67;100.00
17054;BME280;8643;48.824;11.422;2023-02-28T04:47:37;97539.09;;;-4.73;100.00
17054;BME280;8643;48.824;11.422;2023-02-28T04:50:08;97533.16;;;-4.75;100.00
17054;BME280;8643;48.824;11.422;2023-02-28T04:52:36;97534.16;;;-4.76;100.00
17054;BME280;8643;48.824;11.422;2023-02-28T04:55:08;97525.56;;;-4.78;100.00
17054;BME280;8643;48.824;11.422;2023-02-28T04:57:36;97526.16;;;-4.76;100.00
17054;BME280;8643;48.824;11.422;2023-02-28T05:00:07;97529.50;;;-4.81;100.00
17054;BME280;8643;48.824;11.422;2023-02-28T05:02:38;97542.66;;;-4.79;100.00
17054;BME280;8643;48.824;11.422;2023-02-28T05:05:07;97546.13;;;-4.79;100.00
17054;BME280;8643;48.824;11.422;2023-02-28T05:07:36;97547.75;;;-4.78;100.00
17054;BME280;8643;48.824;11.422;2023-02-28T05:10:05;97545.31;;;-4.79;100.00
17054;BME280;8643;48.824;11.422;2023-02-28T05:12:35;97551.25;;;-4.77;100.00
17054;BME280;8643;48.824;11.422;2023-02-28T05:15:06;97554.38;;;-4.80;100.00
17054;BME280;8643;48.824;11.422;2023-02-28T05:17:34;97554.78;;;-4.83;100.00
17054;BME280;8643;48.824;11.422;2023-02-28T05:20:03;97549.09;;;-4.87;100.00
17054;BME280;8643;48.824;11.422;2023-02-28T05:22:42;97554.59;;;-4.82;100.00
17054;BME280;8643;48.824;11.422;2023-02-28T05:25:16;97559.72;;;-4.80;100.00
17054;BME280;8643;48.824;11.422;2023-02-28T05:27:46;97555.59;;;-4.83;100.00
17054;BME280;8643;48.824;11.422;2023-02-28T05:30:15;97553.78;;;-4.82;100.00
17054;BME280;8643;48.824;11.422;2023-02-28T05:32:49;97550.69;;;-4.86;100.00
17054;BME280;8643;48.824;11.422;2023-02-28T05:35:17;97555.81;;;-4.84;100.00
17054;BME280;8643;48.824;11.422;2023-02-28T05:37:46;97556.50;;;-4.89;100.00
17054;BME280;8643;48.824;11.422;2023-02-28T05:40:14;97558.13;;;-4.88;100.00
17054;BME280;8643;48.824;11.422;2023-02-28T05:42:43;97559.75;;;-4.87;100.00
17054;BME280;8643;48.824;11.422;2023-02-28T05:45:13;97555.88;;;-4.91;100.00
17054;BME280;8643;48.824;11.422;2023-02-28T05:47:41;97552.41;;;-4.91;100.00
17054;BME280;8643;48.824;11.422;2023-02-28T05:50:10;97561.44;;;-4.92;100.00
17054;BME280;8643;48.824;11.422;2023-02-28T05:52:39;97558.94;;;-4.87;100.00
17054;BME280;8643;48.824;11.422;2023-02-28T05:55:08;97566.94;;;-4.87;100.00
17054;BME280;8643;48.824;11.422;2023-02-28T05:57:37;97564.06;;;-4.86;100.00
17054;BME280;8643;48.824;11.422;2023-02-28T06:00:07;97568.81;;;-4.88;100.00
17054;BME280;8643;48.824;11.422;2023-02-28T06:02:40;97572.91;;;-4.85;100.00
17054;BME280;8643;48.824;11.422;2023-02-28T06:05:14;97569.81;;;-4.82;100.00
17054;BME280;8643;48.824;11.422;2023-02-28T06:07:43;97572.91;;;-4.85;100.00
17054;BME280;8643;48.824;11.422;2023-02-28T06:10:12;97574.53;;;-4.84;100.00
17054;BME280;8643;48.824;11.422;2023-02-28T06:12:41;97572.91;;;-4.85;100.00
17054;BME280;8643;48.824;11.422;2023-02-28T06:15:14;97574.72;;;-4.79;100.00
17054;BME280;8643;48.824;11.422;2023-02-28T06:17:44;97577.94;;;-4.70;100.00
17054;BME280;8643;48.824;11.422;2023-02-28T06:20:13;97566.38;;;-4.64;100.00
17054;BME280;8643;48.824;11.422;2023-02-28T06:22:41;97577.66;;;-4.62;100.00
17054;BME280;8643;48.824;11.422;2023-02-28T06:25:11;97575.13;;;-4.57;100.00
17054;BME280;8643;48.824;11.422;2023-02-28T06:27:39;97568.91;;;-4.51;100.00
17054;BME280;8643;48.824;11.422;2023-02-28T06:30:09;97575.06;;;-4.50;100.00
17054;BME280;8643;48.824;11.422;2023-02-28T06:32:38;97574.78;;;-4.42;100.00
17054;BME280;8643;48.824;11.422;2023-02-28T06:35:08;97573.25;;;-4.31;100.00
17054;BME280;8643;48.824;11.422;2023-02-28T06:37:37;97571.78;;;-4.27;100.00
17054;BME280;8643;48.824;11.422;2023-02-28T06:40:09;97579.13;;;-4.22;100.00
17054;BME280;8643;48.824;11.422;2023-02-28T06:42:40;97578.78;;;-4.08;100.00
17054;BME280;8643;48.824;11.422;2023-02-28T06:45:10;97582.44;;;-4.02;100.00
17054;BME280;8643;48.824;11.422;2023-02-28T06:47:40;97575.75;;;-3.93;100.00
17054;BME280;8643;48.824;11.422;2023-02-28T06:50:12;97585.38;;;-3.73;100.00
17054;BME280;8643;48.824;11.422;2023-02-28T06:52:41;97582.78;;;-3.61;100.00
17054;BME280;8643;48.824;11.422;2023-02-28T06:55:09;97574.84;;;-3.38;100.00
17054;BME280;8643;48.824;11.422;2023-02-28T06:57:38;97580.19;;;-3.19;100.00
17054;BME280;8643;48.824;11.422;2023-02-28T07:00:09;97585.38;;;-2.94;100.00
17054;BME280;8643;48.824;11.422;2023-02-28T07:02:38;97584.97;;;-2.67;100.00
17054;BME280;8643;48.824;11.422;2023-02-28T07:05:07;97580.91;;;-2.58;100.00
17054;BME280;8643;48.824;11.422;2023-02-28T07:07:37;97586.31;;;-2.34;100.00
17054;BME280;8643;48.824;11.422;2023-02-28T07:10:11;97578.69;;;-2.14;100.00
17054;BME280;8643;48.824;11.422;2023-02-28T07:12:40;97583.69;;;-1.82;100.00
17054;BME280;8643;48.824;11.422;2023-02-28T07:15:10;97582.22;;;-1.49;98.67
17054;BME280;8643;48.824;11.422;2023-02-28T07:17:39;97578.19;;;-1.35;98.01
17054;BME280;8643;48.824;11.422;2023-02-28T07:20:09;97592.13;;;-0.63;96.21
17054;BME280;8643;48.824;11.422;2023-02-28T07:22:39;97582.28;;;-1.03;93.33
17054;BME280;8643;48.824;11.422;2023-02-28T07:25:08;97586.84;;;-1.04;93.62
17054;BME280;8643;48.824;11.422;2023-02-28T07:27:37;97591.75;;;-0.67;92.14
17054;BME280;8643;48.824;11.422;2023-02-28T07:30:09;97587.13;;;-0.21;90.10
17054;BME280;8643;48.824;11.422;2023-02-28T07:32:38;97590.88;;;-0.56;89.67
17054;BME280;8643;48.824;11.422;2023-02-28T07:35:07;97595.75;;;0.38;88.99
17054;BME280;8643;48.824;11.422;2023-02-28T07:37:37;97592.00;;;0.39;84.53
17054;BME280;8643;48.824;11.422;2023-02-28T07:40:09;97604.13;;;0.63;83.76
17054;BME280;8643;48.824;11.422;2023-02-28T07:42:40;97610.09;;;0.87;81.94
17054;BME280;8643;48.824;11.422;2023-02-28T07:45:10;97600.88;;;0.83;80.48
17054;BME280;8643;48.824;11.422;2023-02-28T07:47:39;97604.81;;;0.98;79.40
17054;BME280;8643;48.824;11.422;2023-02-28T07:50:11;97614.13;;;0.63;78.60
17054;BME280;8643;48.824;11.422;2023-02-28T07:52:41;97605.19;;;1.34;78.12
17054;BME280;8643;48.824;11.422;2023-02-28T07:55:10;97609.50;;;1.35;77.90
17054;BME280;8643;48.824;11.422;2023-02-28T07:57:39;97613.19;;;1.88;76.19
17054;BME280;8643;48.824;11.422;2023-02-28T08:00:11;97610.16;;;1.47;74.08
17054;BME280;8643;48.824;11.422;2023-02-28T08:02:40;97610.72;;;2.24;74.15
17054;BME280;8643;48.824;11.422;2023-02-28T08:05:09;97606.78;;;1.99;75.15
17054;BME280;8643;48.824;11.422;2023-02-28T08:07:38;97612.56;;;2.66;73.19
17054;BME280;8643;48.824;11.422;2023-02-28T08:10:09;97615.06;;;2.25;71.42
17054;BME280;8643;48.824;11.422;2023-02-28T08:12:38;97609.19;;;2.44;73.08
17054;BME280;8643;48.824;11.422;2023-02-28T08:15:08;97618.44;;;2.48;72.77
17054;BME280;8643;48.824;11.422;2023-02-28T08:17:37;97618.50;;;2.68;70.38
17054;BME280;8643;48.824;11.422;2023-02-28T08:20:07;97619.91;;;2.81;69.39
17054;BME280;8643;48.824;11.422;2023-02-28T08:22:37;97615.38;;;2.92;67.46
17054;BME280;8643;48.824;11.422;2023-02-28T08:25:08;97616.38;;;2.23;69.00
17054;BME280;8643;48.824;11.422;2023-02-28T08:27:37;97608.94;;;3.14;70.33
17054;BME280;8643;48.824;11.422;2023-02-28T08:30:07;97616.00;;;3.20;65.93
17054;BME280;8643;48.824;11.422;2023-02-28T08:32:38;97616.53;;;3.27;66.70
17054;BME280;8643;48.824;11.422;2023-02-28T08:35:08;97617.09;;;3.55;66.39
17054;BME280;8643;48.824;11.422;2023-02-28T08:37:37;97623.31;;;3.40;67.89
17054;BME280;8643;48.824;11.422;2023-02-28T08:40:09;97627.94;;;3.60;65.66
17054;BME280;8643;48.824;11.422;2023-02-28T08:42:38;97614.69;;;3.69;65.91
17054;BME280;8643;48.824;11.422;2023-02-28T08:45:07;97633.09;;;3.61;64.41
17054;BME280;8643;48.824;11.422;2023-02-28T08:47:35;97635.56;;;4.09;66.12
17054;BME280;8643;48.824;11.422;2023-02-28T08:50:05;97638.25;;;4.19;66.95
17054;BME280;8643;48.824;11.422;2023-02-28T08:52:33;97632.84;;;3.83;65.08
17054;BME280;8643;48.824;11.422;2023-02-28T08:55:08;97636.09;;;3.91;65.12
17054;BME280;8643;48.824;11.422;2023-02-28T08:57:37;97623.56;;;4.36;64.23
17054;BME280;8643;48.824;11.422;2023-02-28T09:00:07;97634.88;;;4.64;63.81
17054;BME280;8643;48.824;11.422;2023-02-28T09:02:38;97635.75;;;4.44;63.61
17054;BME280;8643;48.824;11.422;2023-02-28T09:05:08;97641.38;;;4.63;64.54
17054;BME280;8643;48.824;11.422;2023-02-28T09:07:36;97653.09;;;4.43;62.88
17054;BME280;8643;48.824;11.422;2023-02-28T09:10:08;97636.63;;;4.13;63.95
17054;BME280;8643;48.824;11.422;2023-02-28T09:12:36;97643.03;;;4.58;62.38
17054;BME280;8643;48.824;11.422;2023-02-28T09:15:06;97640.63;;;4.47;63.75
17054;BME280;8643;48.824;11.422;2023-02-28T09:17:35;97637.16;;;5.06;65.68
17054;BME280;8643;48.824;11.422;2023-02-28T09:20:05;97640.75;;;4.91;58.21
17054;BME280;8643;48.824;11.422;2023-02-28T09:22:33;97635.88;;;4.88;61.89
17054;BME280;8643;48.824;11.422;2023-02-28T09:25:02;97637.25;;;4.86;58.04
17054;BME280;8643;48.824;11.422;2023-02-28T09:27:32;97630.34;;;5.14;60.74
17054;BME280;8643;48.824;11.422;2023-02-28T09:30:01;97623.81;;;5.94;61.59
17054;BME280;8643;48.824;11.422;2023-02-28T09:32:29;97630.72;;;6.21;58.63
17054;BME280;8643;48.824;11.422;2023-02-28T09:34:58;97631.91;;;6.10;59.99
17054;BME280;8643;48.824;11.422;2023-02-28T09:37:26;97633.22;;;6.41;61.21
17054;BME280;8643;48.824;11.422;2023-02-28T09:39:58;97639.72;;;6.16;56.10
17054;BME280;8643;48.824;11.422;2023-02-28T09:42:33;97641.63;;;5.37;58.37
17054;BME280;8643;48.824;11.422;2023-02-28T09:45:21;97648.97;;;5.31;59.22
17054;BME280;8643;48.824;11.422;2023-02-28T09:47:55;97637.47;;;5.00;58.68
17054;BME280;8643;48.824;11.422;2023-02-28T09:50:33;97642.31;;;5.58;58.16
17054;BME280;8643;48.824;11.422;2023-02-28T09:53:06;97644.22;;;5.52;58.61
17054;BME280;8643;48.824;11.422;2023-02-28T09:55:45;97635.84;;;5.04;57.53
17054;BME280;8643;48.824;11.422;2023-02-28T09:58:26;97635.94;;;5.33;60.94
17054;BME280;8643;48.824;11.422;2023-02-28T10:01:03;97638.81;;;5.52;58.99
17054;BME280;8643;48.824;11.422;2023-02-28T10:03:39;97643.53;;;5.76;63.26
17054;BME280;8643;48.824;11.422;2023-02-28T10:06:14;97641.59;;;5.81;62.68
17054;BME280;8643;48.824;11.422;2023-02-28T10:08:53;97637.81;;;6.17;57.91
17054;BME280;8643;48.824;11.422;2023-02-28T10:11:26;97629.53;;;5.98;62.35
17054;BME280;8643;48.824;11.422;2023-02-28T10:14:02;97630.59;;;6.31;60.61
17054;BME280;8643;48.824;11.422;2023-02-28T10:16:40;97640.69;;;6.26;58.44
17054;BME280;8643;48.824;11.422;2023-02-28T10:19:20;97636.59;;;5.99;60.87
17054;BME280;8643;48.824;11.422;2023-02-28T10:21:57;97638.47;;;6.03;61.42
17054;BME280;8643;48.824;11.422;2023-02-28T10:24:32;97630.81;;;6.05;60.60
17054;BME280;8643;48.824;11.422;2023-02-28T10:27:13;97641.88;;;6.43;60.83
17054;BME280;8643;48.824;11.422;2023-02-28T10:29:50;97641.66;;;6.11;59.33
17054;BME280;8643;48.824;11.422;2023-02-28T10:32:22;97642.38;;;6.21;57.21
17054;BME280;8643;48.824;11.422;2023-02-28T10:34:57;97633.75;;;6.68;60.27
17054;BME280;8643;48.824;11.422;2023-02-28T10:37:28;97638.31;;;6.72;60.10
17054;BME280;8643;48.824;11.422;2023-02-28T10:39:57;97649.66;;;6.79;56.94
17054;BME280;8643;48.824;11.422;2023-02-28T10:42:27;97650.44;;;6.61;56.38
17054;BME280;8643;48.824;11.422;2023-02-28T10:45:13;97655.53;;;6.38;60.67
17054;BME280;8643;48.824;11.422;2023-02-28T10:47:53;97652.59;;;6.88;58.97
17054;BME280;8643;48.824;11.422;2023-02-28T10:50:51;97650.31;;;6.71;62.91
17054;BME280;8643;48.824;11.422;2023-02-28T10:53:34;97649.94;;;7.02;61.64
17054;BME280;8643;48.824;11.422;2023-02-28T10:56:25;97644.75;;;7.06;55.61
17054;BME280;8643;48.824;11.422;2023-02-28T10:58:57;97648.34;;;6.53;58.21
17054;BME280;8643;48.824;11.422;2023-02-28T11:01:42;97649.41;;;7.24;62.25
17054;BME280;8643;48.824;11.422;2023-02-28T11:04:19;97656.09;;;6.65;54.32
17054;BME280;8643;48.824;11.422;2023-02-28T11:06:58;97649.22;;;6.96;54.32
17054;BME280;8643;48.824;11.422;2023-02-28T11:09:32;97651.38;;;6.75;57.17
17054;BME280;8643;48.824;11.422;2023-02-28T11:12:04;97651.25;;;6.86;60.95
17054;BME280;8643;48.824;11.422;2023-02-28T11:14:46;97652.16;;;6.76;60.05
17054;BME280;8643;48.824;11.422;2023-02-28T11:17:22;97654.69;;;6.43;58.10
17054;BME280;8643;48.824;11.422;2023-02-28T11:19:56;97644.00;;;7.00;59.62
17054;BME280;8643;48.824;11.422;2023-02-28T11:22:28;97646.03;;;6.89;60.14
17054;BME280;8643;48.824;11.422;2023-02-28T11:25:07;97651.84;;;7.26;55.37
17054;BME280;8643;48.824;11.422;2023-02-28T11:27:56;97651.13;;;7.58;59.02
17054;BME280;8643;48.824;11.422;2023-02-28T11:30:35;97646.28;;;7.74;53.14
17054;BME280;8643;48.824;11.422;2023-02-28T11:33:23;97644.69;;;7.87;58.84
17054;BME280;8643;48.824;11.422;2023-02-28T11:36:00;97645.66;;;7.96;57.94
17054;BME280;8643;48.824;11.422;2023-02-28T11:38:30;97646.41;;;7.64;59.54
17054;BME280;8643;48.824;11.422;2023-02-28T11:41:25;97646.47;;;7.21;54.31
17054;BME280;8643;48.824;11.422;2023-02-28T11:44:26;97647.88;;;7.56;57.90
17054;BME280;8643;48.824;11.422;2023-02-28T11:47:01;97646.31;;;7.88;56.01
17054;BME280;8643;48.824;11.422;2023-02-28T11:49:42;97643.31;;;8.22;53.53
17054;BME280;8643;48.824;11.422;2023-02-28T11:52:29;97637.44;;;8.48;55.27
17054;BME280;8643;48.824;11.422;2023-02-28T11:55:14;97647.47;;;8.01;56.16
17054;BME280;8643;48.824;11.422;2023-02-28T12:01:18;97643.50;;;7.93;56.76
17054;BME280;8643;48.824;11.422;2023-02-28T12:04:07;97646.03;;;8.83;54.90
17054;BME280;8643;48.824;11.422;2023-02-28T12:06:48;97631.28;;;8.23;54.40
17054;BME280;8643;48.824;11.422;2023-02-28T12:09:40;97636.50;;;8.06;52.77
17054;BME280;8643;48.824;11.422;2023-02-28T12:12:34;97633.41;;;9.01;56.55
17054;BME280;8643;48.824;11.422;2023-02-28T12:15:25;97639.78;;;8.83;54.37
17054;BME280;8643;48.824;11.422;2023-02-28T12:18:11;97630.25;;;8.19;52.71
17054;BME280;8643;48.824;11.422;2023-02-28T12:20:53;97631.41;;;7.99;55.37
17054;BME280;8643;48.824;11.422;2023-02-28T12:23:50;97630.06;;;7.64;53.07
17054;BME280;8643;48.824;11.422;2023-02-28T12:26:34;97619.72;;;7.61;55.33
17054;BME280;8643;48.824;11.422;2023-02-28T12:29:14;97628.50;;;7.20;56.35
17054;BME280;8643;48.824;11.422;2023-02-28T12:31:50;97622.59;;;7.31;59.91
17054;BME280;8643;48.824;11.422;2023-02-28T12:34:28;97618.94;;;7.41;54.40
17054;BME280;8643;48.824;11.422;2023-02-28T12:37:07;97624.84;;;7.48;57.21
17054;BME280;8643;48.824;11.422;2023-02-28T12:39:45;97617.41;;;8.06;57.77
17054;BME280;8643;48.824;11.422;2023-02-28T12:42:24;97617.41;;;7.87;57.08
17054;BME280;8643;48.824;11.422;2023-02-28T12:45:01;97609.66;;;8.13;52.25
17054;BME280;8643;48.824;11.422;2023-02-28T12:47:30;97614.78;;;7.82;52.26
17054;BME280;8643;48.824;11.422;2023-02-28T12:50:04;97615.06;;;7.99;57.47
17054;BME280;8643;48.824;11.422;2023-02-28T12:52:42;97608.81;;;8.13;57.66
17054;BME280;8643;48.824;11.422;2023-02-28T12:55:23;97614.28;;;8.59;51.59
17054;BME280;8643;48.824;11.422;2023-02-28T12:58:07;97612.53;;;8.03;56.98
17054;BME280;8643;48.824;11.422;2023-02-28T13:04:21;97611.25;;;8.14;56.98
17054;BME280;8643;48.824;11.422;2023-02-28T13:07:11;97608.03;;;8.12;55.81
17054;BME280;8643;48.824;11.422;2023-02-28T13:09:52;97609.38;;;8.42;54.63
17054;BME280;8643;48.824;11.422;2023-02-28T13:12:24;97603.97;;;8.84;52.79
17054;BME280;8643;48.824;11.422;2023-02-28T13:15:06;97601.03;;;8.67;50.18
17054;BME280;8643;48.824;11.422;2023-02-28T13:17:40;97602.63;;;8.40;54.74
17054;BME280;8643;48.824;11.422;2023-02-28T13:20:19;97594.00;;;8.19;58.26
17054;BME280;8643;48.824;11.422;2023-02-28T13:22:50;97596.72;;;8.33;56.87
17054;BME280;8643;48.824;11.422;2023-02-28T13:25:53;97591.66;;;8.12;54.86
17054;BME280;8643;48.824;11.422;2023-02-28T13:32:32;97590.81;;;7.98;55.29
17054;BME280;8643;48.824;11.422;2023-02-28T13:35:45;97597.06;;;7.65;57.22
17054;BME280;8643;48.824;11.422;2023-02-28T13:38:34;97590.16;;;8.34;54.48
17054;BME280;8643;48.824;11.422;2023-02-28T13:41:45;97589.72;;;7.99;55.80
17054;BME280;8643;48.824;11.422;2023-02-28T13:44:17;97598.63;;;7.85;54.35
17054;BME280;8643;48.824;11.422;2023-02-28T13:47:21;97591.69;;;8.40;55.30
17054;BME280;8643;48.824;11.422;2023-02-28T13:49:53;97593.94;;;8.38;52.27
17054;BME280;8643;48.824;11.422;2023-02-28T13:52:24;97596.59;;;8.10;54.91